createdAt,value
2022-11-24T00:01:09.420Z,-1.14
2022-11-24T00:03:37.030Z,-1.16
2022-11-24T00:06:11.902Z,-1.16
2022-11-24T00:08:40.135Z,-1.16
2022-11-24T00:11:09.882Z,-1.17
2022-11-24T00:13:40.478Z,-1.22
2022-11-24T00:16:12.997Z,-1.24
2022-11-24T00:18:41.090Z,-1.25
2022-11-24T00:21:08.550Z,-1.28
2022-11-24T00:23:36.146Z,-1.28
2022-11-24T00:26:08.858Z,-1.28
2022-11-24T00:28:36.889Z,-1.29
2022-11-24T00:31:05.547Z,-1.28
2022-11-24T00:33:32.753Z,-1.24
2022-11-24T00:36:00.777Z,-1.27
2022-11-24T00:38:28.238Z,-1.27
2022-11-24T00:40:55.315Z,-1.23
2022-11-24T00:43:22.406Z,-1.26
2022-11-24T00:45:49.610Z,-1.25
2022-11-24T00:48:16.732Z,-1.22
2022-11-24T00:50:43.818Z,-1.24
2022-11-24T00:53:10.888Z,-1.23
2022-11-24T00:55:37.944Z,-1.22
2022-11-24T00:58:04.990Z,-1.25
2022-11-24T01:00:32.058Z,-1.29
2022-11-24T01:02:59.233Z,-1.31
2022-11-24T01:05:26.633Z,-1.32
2022-11-24T01:07:54.111Z,-1.34
2022-11-24T01:10:21.542Z,-1.37
2022-11-24T01:12:48.652Z,-1.40
2022-11-24T01:15:16.094Z,-1.39
2022-11-24T01:17:43.506Z,-1.41
2022-11-24T01:20:10.866Z,-1.45
2022-11-24T01:22:42.304Z,-1.46
2022-11-24T01:25:10.780Z,-1.46
2022-11-24T01:27:38.350Z,-1.47
2022-11-24T01:30:06.512Z,-1.47
2022-11-24T01:32:36.152Z,-1.45
2022-11-24T01:35:04.950Z,-1.43
2022-11-24T01:37:32.376Z,-1.42
2022-11-24T01:39:59.448Z,-1.44
2022-11-24T01:42:26.565Z,-1.44
2022-11-24T01:45:30.385Z,-1.45
2022-11-24T01:47:57.516Z,-1.48
2022-11-24T01:50:24.997Z,-1.50
2022-11-24T01:52:54.140Z,-1.51
2022-11-24T01:55:24.407Z,-1.51
2022-11-24T01:57:56.555Z,-1.49
2022-11-24T02:00:23.700Z,-1.51
2022-11-24T02:02:53.022Z,-1.48
2022-11-24T02:05:26.181Z,-1.44
2022-11-24T02:07:54.520Z,-1.41
2022-11-24T02:10:22.046Z,-1.39
2022-11-24T02:12:52.847Z,-1.36
2022-11-24T02:15:20.211Z,-1.33
2022-11-24T02:17:47.643Z,-1.30
2022-11-24T02:20:15.441Z,-1.26
2022-11-24T02:22:51.621Z,-1.23
2022-11-24T02:25:30.842Z,-1.20
2022-11-24T02:27:59.377Z,-1.15
2022-11-24T02:30:26.723Z,-1.11
2022-11-24T02:32:54.014Z,-1.10
2022-11-24T02:35:21.213Z,-1.07
2022-11-24T02:37:48.545Z,-1.03
2022-11-24T02:40:16.727Z,-1.03
2022-11-24T02:42:46.005Z,-1.00
2022-11-24T02:45:14.751Z,-1.01
2022-11-24T02:47:42.018Z,-0.98
2022-11-24T02:50:09.319Z,-0.97
2022-11-24T02:52:36.398Z,-0.91
2022-11-24T02:55:04.148Z,-0.88
2022-11-24T02:57:31.404Z,-0.94
2022-11-24T02:59:58.514Z,-0.95
2022-11-24T03:02:25.713Z,-0.90
2022-11-24T03:04:52.819Z,-0.82
2022-11-24T03:07:20.044Z,-0.75
2022-11-24T03:09:47.208Z,-0.69
2022-11-24T03:12:14.535Z,-0.63
2022-11-24T03:14:41.628Z,-0.56
2022-11-24T03:17:08.762Z,-0.48
2022-11-24T03:19:35.809Z,-0.41
2022-11-24T03:22:03.259Z,-0.37
2022-11-24T03:24:30.371Z,-0.34
2022-11-24T03:26:57.477Z,-0.30
2022-11-24T03:29:24.604Z,-0.25
2022-11-24T03:31:51.642Z,-0.24
2022-11-24T03:34:18.967Z,-0.19
2022-11-24T03:36:46.014Z,-0.17
2022-11-24T03:39:13.101Z,-0.13
2022-11-24T03:41:40.203Z,-0.10
2022-11-24T03:44:07.248Z,-0.08
2022-11-24T03:46:34.458Z,-0.05
2022-11-24T03:49:01.633Z,-0.01
2022-11-24T03:51:28.671Z,0.02
2022-11-24T03:53:55.717Z,0.06
2022-11-24T03:56:22.756Z,0.13
2022-11-24T03:58:50.071Z,0.17
2022-11-24T04:01:17.160Z,0.18
2022-11-24T04:03:44.265Z,0.18
2022-11-24T04:06:11.389Z,0.23
2022-11-24T04:08:38.437Z,0.24
2022-11-24T04:11:05.563Z,0.27
2022-11-24T04:13:32.673Z,0.34
2022-11-24T04:15:59.791Z,0.40
2022-11-24T04:18:26.982Z,0.43
2022-11-24T04:20:54.120Z,0.48
2022-11-24T04:23:21.214Z,0.53
2022-11-24T04:25:48.719Z,0.56
2022-11-24T04:28:15.933Z,0.61
2022-11-24T04:30:45.033Z,0.61
2022-11-24T04:33:12.901Z,0.65
2022-11-24T04:35:40.092Z,0.70
2022-11-24T04:38:07.163Z,0.77
2022-11-24T04:40:34.250Z,0.90
2022-11-24T04:43:01.310Z,0.97
2022-11-24T04:45:28.359Z,1.06
2022-11-24T04:47:55.544Z,1.16
2022-11-24T04:50:22.698Z,1.27
2022-11-24T04:52:49.867Z,1.37
2022-11-24T04:55:16.901Z,1.54
2022-11-24T04:57:43.974Z,1.65
2022-11-24T05:00:11.664Z,1.78
2022-11-24T05:02:39.229Z,1.89
2022-11-24T05:05:06.947Z,2.00
2022-11-24T05:07:34.824Z,2.08
2022-11-24T05:10:20.536Z,2.18
2022-11-24T05:12:55.790Z,2.30
2022-11-24T05:15:23.407Z,2.41
2022-11-24T05:17:50.547Z,2.51
2022-11-24T05:20:18.261Z,2.60
2022-11-24T05:22:45.607Z,2.73
2022-11-24T05:25:14.241Z,2.81
2022-11-24T05:27:41.975Z,2.89
2022-11-24T05:30:09.610Z,2.96
2022-11-24T05:32:36.722Z,3.03
2022-11-24T05:35:04.508Z,3.07
2022-11-24T05:37:31.611Z,3.10
2022-11-24T05:39:58.752Z,3.10
2022-11-24T05:42:46.225Z,3.09
2022-11-24T05:45:20.408Z,3.10
2022-11-24T05:47:49.458Z,3.14
2022-11-24T05:50:18.612Z,3.18
2022-11-24T05:52:45.707Z,3.19
2022-11-24T05:55:14.786Z,3.22
2022-11-24T05:57:42.410Z,3.27
2022-11-24T06:00:10.646Z,3.31
2022-11-24T06:02:37.783Z,3.36
2022-11-24T06:05:05.358Z,3.38
2022-11-24T06:07:32.490Z,3.42
2022-11-24T06:09:59.585Z,3.43
2022-11-24T06:12:26.679Z,3.45
2022-11-24T06:14:53.884Z,3.45
2022-11-24T06:17:20.921Z,3.42
2022-11-24T06:19:50.125Z,3.44
2022-11-24T06:22:19.160Z,3.43
2022-11-24T06:24:46.845Z,3.45
2022-11-24T06:27:14.239Z,3.44
2022-11-24T06:29:41.342Z,3.46
2022-11-24T06:32:08.775Z,3.46
2022-11-24T06:34:36.351Z,3.44
2022-11-24T06:37:03.615Z,3.46
2022-11-24T06:39:30.699Z,3.47
2022-11-24T06:41:57.852Z,3.50
2022-11-24T06:44:25.272Z,3.53
2022-11-24T06:46:52.455Z,3.57
2022-11-24T06:49:19.549Z,3.59
2022-11-24T06:51:46.703Z,3.59
2022-11-24T06:54:17.280Z,3.61
2022-11-24T06:56:44.388Z,3.61
2022-11-24T06:59:19.595Z,3.60
2022-11-24T07:01:47.094Z,3.63
2022-11-24T07:04:15.102Z,3.63
2022-11-24T07:06:42.968Z,3.61
2022-11-24T07:09:11.662Z,3.61
2022-11-24T07:11:39.233Z,3.61
2022-11-24T07:14:06.854Z,3.66
2022-11-24T07:16:34.347Z,3.62
2022-11-24T07:19:01.519Z,3.61
2022-11-24T07:21:30.602Z,3.63
2022-11-24T07:23:58.224Z,3.67
2022-11-24T07:26:25.933Z,3.72
2022-11-24T07:28:53.072Z,3.72
2022-11-24T07:31:22.176Z,3.73
2022-11-24T07:33:50.781Z,3.75
2022-11-24T07:36:17.937Z,3.75
2022-11-24T07:38:45.120Z,3.75
2022-11-24T07:41:14.059Z,3.74
2022-11-24T07:43:41.420Z,3.73
2022-11-24T07:46:12.825Z,3.71
2022-11-24T07:48:40.138Z,3.76
2022-11-24T07:51:07.622Z,3.79
2022-11-24T07:53:35.285Z,3.83
2022-11-24T07:56:04.063Z,3.89
2022-11-24T07:58:33.576Z,3.94
2022-11-24T08:01:09.301Z,4.00
2022-11-24T08:03:36.528Z,4.05
2022-11-24T08:08:50.825Z,4.13
2022-11-24T08:11:18.211Z,4.16
2022-11-24T08:13:45.488Z,4.21
2022-11-24T08:16:17.339Z,4.27
2022-11-24T08:18:52.324Z,4.33
2022-11-24T08:21:19.519Z,4.39
2022-11-24T08:23:46.656Z,4.43
2022-11-24T08:26:17.656Z,4.47
2022-11-24T08:28:46.177Z,4.56
2022-11-24T08:31:15.552Z,4.64
2022-11-24T08:33:42.957Z,4.74
2022-11-24T08:36:14.944Z,4.83
2022-11-24T08:38:42.222Z,4.91
2022-11-24T08:41:11.367Z,4.98
2022-11-24T08:43:38.749Z,5.09
2022-11-24T08:46:08.259Z,5.16
2022-11-24T08:48:35.535Z,5.22
2022-11-24T08:51:15.497Z,5.27
2022-11-24T08:53:42.769Z,5.31
2022-11-24T08:56:10.728Z,5.36
2022-11-24T08:58:38.282Z,5.43
2022-11-24T09:01:08.408Z,5.49
2022-11-24T09:03:35.992Z,5.57
2022-11-24T09:06:03.589Z,5.60
2022-11-24T09:08:31.417Z,5.65
2022-11-24T09:11:03.868Z,5.70
2022-11-24T09:13:31.441Z,5.73
2022-11-24T09:16:11.850Z,5.76
2022-11-24T09:18:39.415Z,5.80
2022-11-24T09:21:07.778Z,5.84
2022-11-24T09:23:35.105Z,5.85
2022-11-24T09:26:13.609Z,5.90
2022-11-24T09:28:41.616Z,5.97
2022-11-24T09:31:11.369Z,6.02
2022-11-24T09:33:39.317Z,6.07
2022-11-24T09:36:07.119Z,6.11
2022-11-24T09:38:34.494Z,6.15
2022-11-24T09:41:19.965Z,6.20
2022-11-24T09:44:05.016Z,6.23
2022-11-24T09:46:40.621Z,6.28
2022-11-24T09:49:14.273Z,6.29
2022-11-24T09:51:43.441Z,6.31
2022-11-24T09:54:15.089Z,6.29
2022-11-24T09:56:43.139Z,6.31
2022-11-24T09:59:18.799Z,6.33
2022-11-24T10:01:47.108Z,6.35
2022-11-24T10:04:17.444Z,6.37
2022-11-24T10:06:57.716Z,6.39
2022-11-24T10:09:34.429Z,6.36
2022-11-24T10:12:18.007Z,6.34
2022-11-24T10:14:59.126Z,6.38
2022-11-24T10:17:31.847Z,6.39
2022-11-24T10:20:27.292Z,6.39
2022-11-24T10:23:40.889Z,6.36
2022-11-24T10:26:16.164Z,6.35
2022-11-24T10:28:49.197Z,6.36
2022-11-24T10:31:36.834Z,6.39
2022-11-24T10:34:12.576Z,6.41
2022-11-24T10:36:52.397Z,6.43
2022-11-24T10:39:43.601Z,6.48
2022-11-24T10:42:16.028Z,6.52
2022-11-24T10:44:43.390Z,6.57
2022-11-24T10:47:18.695Z,6.61
2022-11-24T10:49:56.931Z,6.67
2022-11-24T10:52:24.914Z,6.74
2022-11-24T10:55:04.223Z,6.81
2022-11-24T10:57:39.055Z,6.89
2022-11-24T11:00:18.386Z,6.94
2022-11-24T11:02:46.490Z,6.98
2022-11-24T11:05:32.051Z,7.03
2022-11-24T11:08:14.439Z,7.10
2022-11-24T11:10:42.811Z,7.13
2022-11-24T11:13:32.325Z,7.16
2022-11-24T11:15:59.613Z,7.15
2022-11-24T11:18:32.740Z,7.15
2022-11-24T11:21:02.164Z,7.13
2022-11-24T11:23:33.717Z,7.17
2022-11-24T11:26:32.022Z,7.20
2022-11-24T11:35:04.537Z,7.23
2022-11-24T11:37:32.975Z,7.25
2022-11-24T11:40:00.472Z,7.27
2022-11-24T11:45:25.000Z,7.29
2022-11-24T11:47:56.986Z,7.31
2022-11-24T11:50:52.993Z,7.32
2022-11-24T11:53:31.450Z,7.33
2022-11-24T11:56:15.888Z,7.34
2022-11-24T11:59:18.906Z,7.36
2022-11-24T12:01:55.495Z,7.39
2022-11-24T12:04:43.821Z,7.43
2022-11-24T12:07:23.059Z,7.49
2022-11-24T12:10:09.169Z,7.59
2022-11-24T12:13:01.131Z,7.68
2022-11-24T12:15:43.322Z,7.76
2022-11-24T12:18:56.986Z,7.84
2022-11-24T12:21:34.938Z,7.90
2022-11-24T12:24:20.733Z,7.96
2022-11-24T12:27:20.891Z,8.03
2022-11-24T12:29:52.725Z,8.07
2022-11-24T12:32:43.383Z,8.07
2022-11-24T12:35:15.563Z,8.08
2022-11-24T12:38:06.216Z,8.11
2022-11-24T12:40:46.666Z,8.13
2022-11-24T12:43:21.851Z,8.13
2022-11-24T12:46:00.195Z,8.13
2022-11-24T12:48:34.408Z,8.13
2022-11-24T12:51:02.057Z,8.18
2022-11-24T12:53:32.389Z,8.21
2022-11-24T12:56:05.924Z,8.23
2022-11-24T12:58:41.160Z,8.26
2022-11-24T13:01:13.000Z,8.28
2022-11-24T13:03:59.786Z,8.26
2022-11-24T13:06:49.535Z,8.25
2022-11-24T13:09:17.205Z,8.20
2022-11-24T13:11:46.037Z,8.18
2022-11-24T13:14:13.563Z,8.15
2022-11-24T13:19:44.336Z,8.10
2022-11-24T13:22:17.367Z,8.09
2022-11-24T13:24:45.163Z,8.06
2022-11-24T13:27:15.434Z,8.05
2022-11-24T13:29:46.353Z,8.03
2022-11-24T13:32:14.507Z,7.98
2022-11-24T13:34:45.686Z,7.96
2022-11-24T13:37:28.898Z,7.97
2022-11-24T13:40:23.908Z,7.99
2022-11-24T13:43:02.232Z,7.96
2022-11-24T13:45:50.605Z,7.96
2022-11-24T13:48:21.184Z,7.92
2022-11-24T13:50:54.955Z,7.91
2022-11-24T13:53:41.008Z,7.82
2022-11-24T13:56:14.260Z,7.76
2022-11-24T13:58:57.571Z,7.70
2022-11-24T14:01:28.610Z,7.58
2022-11-24T14:04:29.412Z,7.48
2022-11-24T14:06:53.727Z,7.41
2022-11-24T14:09:32.632Z,7.36
2022-11-24T14:12:20.638Z,7.27
2022-11-24T14:14:52.419Z,7.24
2022-11-24T14:17:23.011Z,7.22
2022-11-24T14:19:52.747Z,7.23
2022-11-24T14:22:22.428Z,7.24
2022-11-24T14:25:29.845Z,7.25
2022-11-24T14:27:57.208Z,7.24
2022-11-24T14:30:25.083Z,7.25
2022-11-24T14:33:02.703Z,7.25
2022-11-24T14:35:33.404Z,7.27
2022-11-24T14:38:05.039Z,7.26
2022-11-24T14:40:39.940Z,7.26
2022-11-24T14:43:20.125Z,7.26
2022-11-24T14:45:49.726Z,7.28
2022-11-24T14:48:18.282Z,7.27
2022-11-24T14:50:45.439Z,7.27
2022-11-24T14:53:15.393Z,7.21
2022-11-24T14:55:42.463Z,7.22
2022-11-24T14:58:30.609Z,7.20
2022-11-24T15:01:28.508Z,7.16
2022-11-24T15:04:32.407Z,7.14
2022-11-24T15:07:28.925Z,7.09
2022-11-24T15:09:58.534Z,7.03
2022-11-24T15:12:34.470Z,7.01
2022-11-24T15:15:16.572Z,7.00
2022-11-24T15:17:50.127Z,6.95
2022-11-24T15:20:27.364Z,6.95
2022-11-24T15:23:16.021Z,6.94
2022-11-24T15:25:44.156Z,6.93
2022-11-24T15:28:12.010Z,6.92
2022-11-24T15:30:39.132Z,6.89
2022-11-24T15:33:17.591Z,6.88
2022-11-24T15:35:45.527Z,6.85
2022-11-24T15:38:12.919Z,6.85
2022-11-24T15:40:41.039Z,6.86
2022-11-24T15:43:22.168Z,6.85
2022-11-24T15:45:49.241Z,6.84
2022-11-24T15:48:18.099Z,6.83
2022-11-24T15:50:46.523Z,6.83
2022-11-24T15:53:23.867Z,6.83
2022-11-24T15:55:51.317Z,6.84
2022-11-24T15:58:18.826Z,6.84
2022-11-24T16:00:45.970Z,6.83
2022-11-24T16:03:45.024Z,6.82
2022-11-24T16:06:00.300Z,6.81
2022-11-24T16:08:27.355Z,6.78
2022-11-24T16:10:54.476Z,6.77
2022-11-24T16:13:21.502Z,6.73
2022-11-24T16:15:48.599Z,6.69
2022-11-24T16:18:16.242Z,6.69
2022-11-24T16:20:43.474Z,6.67
2022-11-24T16:23:10.646Z,6.64
2022-11-24T16:25:38.062Z,6.64
2022-11-24T16:28:05.207Z,6.62
2022-11-24T16:30:32.307Z,6.61
2022-11-24T16:32:59.360Z,6.58
2022-11-24T16:35:26.387Z,6.52
2022-11-24T16:37:53.496Z,6.47
2022-11-24T16:40:20.622Z,6.47
2022-11-24T16:42:47.666Z,6.43
2022-11-24T16:45:14.860Z,6.42
2022-11-24T16:47:42.903Z,6.41
2022-11-24T16:50:11.515Z,6.39
2022-11-24T16:52:38.761Z,6.39
2022-11-24T16:55:06.722Z,6.35
2022-11-24T16:57:33.824Z,6.35
2022-11-24T17:00:00.928Z,6.35
2022-11-24T17:02:28.123Z,6.38
2022-11-24T17:04:55.331Z,6.40
2022-11-24T17:07:22.564Z,6.40
2022-11-24T17:09:49.672Z,6.38
2022-11-24T17:12:16.734Z,6.36
2022-11-24T17:14:52.659Z,6.36
2022-11-24T17:17:30.328Z,6.35
2022-11-24T17:19:57.469Z,6.35
2022-11-24T17:22:24.549Z,6.36
2022-11-24T17:24:51.629Z,6.32
2022-11-24T17:27:18.793Z,6.31
2022-11-24T17:29:45.870Z,6.29
2022-11-24T17:32:13.798Z,6.30
2022-11-24T17:34:40.870Z,6.28
2022-11-24T17:37:07.966Z,6.27
2022-11-24T17:39:35.007Z,6.26
2022-11-24T17:42:02.182Z,6.27
2022-11-24T17:44:29.295Z,6.29
2022-11-24T17:46:56.465Z,6.29
2022-11-24T17:49:23.552Z,6.32
2022-11-24T17:51:50.660Z,6.27
2022-11-24T17:57:05.975Z,6.33
2022-11-24T17:59:33.105Z,6.32
2022-11-24T18:02:00.226Z,6.33
2022-11-24T18:04:27.339Z,6.34
2022-11-24T18:06:54.454Z,6.31
2022-11-24T18:09:21.520Z,6.26
2022-11-24T18:11:48.689Z,6.25
2022-11-24T18:14:15.929Z,6.19
2022-11-24T18:16:43.134Z,6.13
2022-11-24T18:19:11.157Z,6.11
2022-11-24T18:21:40.471Z,6.09
2022-11-24T18:24:09.587Z,6.09
2022-11-24T18:26:37.216Z,6.07
2022-11-24T18:29:04.802Z,6.07
2022-11-24T18:31:34.252Z,6.08
2022-11-24T18:34:02.399Z,6.10
2022-11-24T18:36:30.731Z,6.14
2022-11-24T18:39:00.971Z,6.15
2022-11-24T18:41:28.049Z,6.15
2022-11-24T18:43:55.082Z,6.15
2022-11-24T18:46:22.330Z,6.12
2022-11-24T18:48:51.937Z,6.13
2022-11-24T18:51:19.010Z,6.15
2022-11-24T18:53:46.907Z,6.17
2022-11-24T18:56:16.055Z,6.14
2022-11-24T18:58:43.648Z,6.15
2022-11-24T19:01:14.377Z,6.13
2022-11-24T19:03:49.651Z,6.13
2022-11-24T19:06:22.285Z,6.15
2022-11-24T19:08:53.082Z,6.17
2022-11-24T19:11:25.544Z,6.17
2022-11-24T19:13:53.016Z,6.18
2022-11-24T19:16:21.113Z,6.17
2022-11-24T19:18:53.920Z,6.18
2022-11-24T19:21:21.865Z,6.17
2022-11-24T19:23:49.928Z,6.14
2022-11-24T19:26:17.376Z,6.17
2022-11-24T19:28:44.941Z,6.17
2022-11-24T19:31:13.639Z,6.17
2022-11-24T19:33:41.363Z,6.17
2022-11-24T19:36:13.924Z,6.18
2022-11-24T19:38:42.076Z,6.18
2022-11-24T19:41:10.403Z,6.13
2022-11-24T19:43:38.003Z,6.14
2022-11-24T19:46:10.725Z,6.15
2022-11-24T19:48:40.346Z,6.15
2022-11-24T19:51:10.055Z,6.17
2022-11-24T19:53:37.932Z,6.20
2022-11-24T19:56:26.240Z,6.22
2022-11-24T19:58:54.358Z,6.22
2022-11-24T20:01:26.156Z,6.23
2022-11-24T20:04:04.918Z,6.22
2022-11-24T20:06:35.155Z,6.22
2022-11-24T20:09:03.681Z,6.16
2022-11-24T20:11:30.894Z,6.11
2022-11-24T20:13:58.115Z,6.14
2022-11-24T20:16:29.448Z,6.15
2022-11-24T20:18:58.719Z,6.13
2022-11-24T20:21:28.731Z,6.12
2022-11-24T20:23:58.901Z,6.11
2022-11-24T20:26:28.397Z,6.10
2022-11-24T20:28:56.809Z,6.09
2022-11-24T20:31:26.806Z,6.08
2022-11-24T20:33:54.054Z,6.08
2022-11-24T20:36:24.209Z,6.05
2022-11-24T20:38:52.714Z,6.06
2022-11-24T20:41:25.136Z,5.98
2022-11-24T20:43:53.150Z,5.98
2022-11-24T20:46:22.077Z,5.99
2022-11-24T20:48:49.348Z,5.98
2022-11-24T20:51:21.927Z,5.97
2022-11-24T20:53:50.655Z,5.95
2022-11-24T20:56:21.340Z,5.92
2022-11-24T20:58:48.924Z,5.88
2022-11-24T21:01:24.938Z,5.85
2022-11-24T21:03:57.728Z,5.83
2022-11-24T21:06:25.666Z,5.78
2022-11-24T21:08:52.929Z,5.79
2022-11-24T21:11:20.600Z,5.77
2022-11-24T21:13:48.925Z,5.74
2022-11-24T21:16:17.768Z,5.75
2022-11-24T21:18:46.355Z,5.72
2022-11-24T21:21:14.442Z,5.72
2022-11-24T21:23:41.518Z,5.69
2022-11-24T21:26:13.300Z,5.67
2022-11-24T21:28:44.360Z,5.67
2022-11-24T21:31:16.488Z,5.63
2022-11-24T21:33:50.923Z,5.67
2022-11-24T21:36:20.956Z,5.67
2022-11-24T21:38:53.265Z,5.63
2022-11-24T21:41:20.792Z,5.66
2022-11-24T21:43:47.974Z,5.66
2022-11-24T21:46:15.549Z,5.69
2022-11-24T21:48:42.986Z,5.66
2022-11-24T21:51:15.510Z,5.66
2022-11-24T21:53:43.874Z,5.60
2022-11-24T21:56:18.247Z,5.63
2022-11-24T21:58:50.401Z,5.62
2022-11-24T22:01:20.003Z,5.55
2022-11-24T22:03:47.190Z,5.48
2022-11-24T22:06:15.875Z,5.47
2022-11-24T22:08:42.909Z,5.43
2022-11-24T22:11:11.623Z,5.42
2022-11-24T22:13:39.158Z,5.47
2022-11-24T22:16:11.447Z,5.49
2022-11-24T22:18:40.602Z,5.47
2022-11-24T22:21:10.221Z,5.48
2022-11-24T22:23:37.435Z,5.47
2022-11-24T22:26:06.498Z,5.48
2022-11-24T22:28:34.248Z,5.49
2022-11-24T22:31:15.859Z,5.49
2022-11-24T22:33:46.249Z,5.48
2022-11-24T22:36:14.343Z,5.45
2022-11-24T22:38:42.187Z,5.45
2022-11-24T22:41:11.532Z,5.43
2022-11-24T22:43:39.736Z,5.41
2022-11-24T22:46:11.352Z,5.40
2022-11-24T22:48:38.898Z,5.39
2022-11-24T22:51:08.036Z,5.37
2022-11-24T22:53:35.426Z,5.37
2022-11-24T22:56:03.880Z,5.37
2022-11-24T22:58:31.922Z,5.36
2022-11-24T23:01:06.386Z,5.38
2022-11-24T23:03:34.747Z,5.41
2022-11-24T23:06:03.274Z,5.44
2022-11-24T23:08:33.093Z,5.46
2022-11-24T23:11:23.757Z,5.49
2022-11-24T23:13:55.854Z,5.51
2022-11-24T23:16:23.673Z,5.53
2022-11-24T23:18:53.900Z,5.52
2022-11-24T23:21:29.001Z,5.54
2022-11-24T23:23:57.688Z,5.55
2022-11-24T23:26:30.428Z,5.56
2022-11-24T23:28:57.480Z,5.58
2022-11-24T23:31:29.543Z,5.58
2022-11-24T23:34:01.597Z,5.57
2022-11-24T23:36:29.513Z,5.59
2022-11-24T23:38:56.735Z,5.56
2022-11-24T23:41:25.582Z,5.51
2022-11-24T23:43:52.796Z,5.43
2022-11-24T23:46:22.217Z,5.37
2022-11-24T23:48:50.444Z,5.31
2022-11-24T23:51:19.649Z,5.25
2022-11-24T23:53:47.075Z,5.20
2022-11-24T23:56:16.517Z,5.14
2022-11-24T23:58:43.893Z,5.05
